Time;durP1;ratioP1;P1;durP2;ratioP2;P2;SDS_P1;SDS_P2;PMS_P1;PMS_P2;Temp;Humidity;BMP_temperature;BMP_pressure;BME280_temperature;BME280_humidity;BME280_pressure;Samples;Min_cycle;Max_cycle;Signal;HPM_P1;HPM_P2
2021/04/14 00:00:22;;;;;;;11.85;5.55;;;;;;;;;;5025857;28;20407;-70
2021/04/14 00:02:48;;;;;;;8.50;5.30;;;;;;;;;;5030741;28;20029;-69
2021/04/14 00:05:16;;;;;;;11.50;5.82;;;;;;;;;;5040738;28;20479;-69
2021/04/14 00:07:42;;;;;;;16.83;6.50;;;;;;;;;;5027036;28;20028;-69
2021/04/14 00:10:08;;;;;;;10.60;5.30;;;;;;;;;;5028031;28;20028;-70
2021/04/14 00:12:35;;;;;;;11.40;4.90;;;;;;;;;;5028186;28;20052;-70
2021/04/14 00:15:01;;;;;;;10.38;5.15;;;;;;;;;;5035818;28;20555;-69
2021/04/14 00:17:27;;;;;;;10.23;4.75;;;;;;;;;;5024524;28;20124;-69
2021/04/14 00:19:53;;;;;;;10.18;5.10;;;;;;;;;;5039664;28;20034;-70
2021/04/14 00:22:19;;;;;;;10.13;4.97;;;;;;;;;;5032780;28;20374;-70
2021/04/14 00:24:44;;;;;;;9.13;5.05;;;;;;;;;;5027199;28;20541;-69
2021/04/14 00:27:10;;;;;;;9.43;4.78;;;;;;;;;;5032976;28;20674;-70
2021/04/14 00:29:36;;;;;;;14.88;4.68;;;;;;;;;;5030708;28;20033;-70
2021/04/14 00:32:03;;;;;;;10.60;5.07;;;;;;;;;;5061793;28;20009;-70
2021/04/14 00:34:30;;;;;;;14.20;4.72;;;;;;;;;;5053637;28;20406;-69
2021/04/14 00:36:57;;;;;;;8.02;4.50;;;;;;;;;;5052638;28;20050;-72
2021/04/14 00:39:25;;;;;;;11.55;4.63;;;;;;;;;;5054901;28;20033;-70
2021/04/14 00:41:51;;;;;;;10.10;4.78;;;;;;;;;;5047558;28;20034;-69
2021/04/14 00:44:20;;;;;;;12.00;4.53;;;;;;;;;;5053005;28;20026;-70
2021/04/14 00:46:46;;;;;;;12.43;5.00;;;;;;;;;;5058908;28;20037;-72
2021/04/14 00:49:13;;;;;;;9.45;4.68;;;;;;;;;;5037874;28;20085;-70
2021/04/14 00:51:44;;;;;;;9.43;4.88;;;;;;;;;;5048982;28;20018;-69
2021/04/14 00:54:11;;;;;;;8.80;4.40;;;;;;;;;;5042961;28;20025;-70
2021/04/14 00:56:37;;;;;;;7.00;4.03;;;;;;;;;;5043746;28;20040;-70
2021/04/14 00:59:03;;;;;;;8.02;4.53;;;;;;;;;;5031651;28;20083;-70
2021/04/14 01:01:29;;;;;;;7.85;4.50;;;;;;;;;;5034237;28;20035;-71
2021/04/14 01:03:55;;;;;;;9.57;4.47;;;;;;;;;;5044433;28;20029;-70
2021/04/14 01:06:23;;;;;;;8.38;4.55;;;;;;;;;;5040204;28;20017;-70
2021/04/14 01:08:49;;;;;;;10.10;4.53;;;;;;;;;;5036772;28;20017;-70
2021/04/14 01:11:16;;;;;;;8.88;5.13;;;;;;;;;;5017362;28;20038;-70
2021/04/14 01:13:43;;;;;;;7.05;4.50;;;;;;;;;;5035962;28;20040;-72
2021/04/14 01:16:09;;;;;;;11.02;4.95;;;;;;;;;;5035353;28;20037;-70
2021/04/14 01:18:36;;;;;;;7.47;4.40;;;;;;;;;;5028730;28;20034;-70
2021/04/14 01:21:04;;;;;;;8.07;4.32;;;;;;;;;;5027345;28;20034;-70
2021/04/14 01:23:31;;;;;;;9.85;4.82;;;;;;;;;;5030220;28;20026;-70
2021/04/14 01:25:57;;;;;;;7.85;4.30;;;;;;;;;;5038862;28;20029;-69
2021/04/14 01:28:25;;;;;;;7.45;3.75;;;;;;;;;;5026733;28;20017;-70
2021/04/14 01:30:52;;;;;;;7.60;3.85;;;;;;;;;;5018877;28;20041;-70
2021/04/14 01:33:19;;;;;;;5.93;3.70;;;;;;;;;;5039014;28;20474;-70
2021/04/14 01:35:45;;;;;;;7.10;4.40;;;;;;;;;;5024100;28;20395;-70
2021/04/14 01:38:11;;;;;;;7.43;3.72;;;;;;;;;;5021616;28;20026;-70
2021/04/14 01:40:37;;;;;;;10.20;3.97;;;;;;;;;;5032303;28;20053;-70
2021/04/14 01:43:04;;;;;;;5.88;3.28;;;;;;;;;;5033487;28;20037;-70
2021/04/14 01:45:32;;;;;;;8.68;4.22;;;;;;;;;;5033337;28;20503;-70
2021/04/14 01:47:58;;;;;;;7.07;4.35;;;;;;;;;;5037598;28;20021;-69
2021/04/14 01:50:24;;;;;;;6.10;3.50;;;;;;;;;;5032892;28;20029;-70
2021/04/14 01:52:51;;;;;;;5.55;3.72;;;;;;;;;;5039898;28;20025;-70
2021/04/14 01:55:17;;;;;;;6.40;3.08;;;;;;;;;;5032307;28;20045;-70
2021/04/14 01:57:46;;;;;;;6.82;3.60;;;;;;;;;;5028566;28;20036;-70
2021/04/14 02:00:20;;;;;;;7.82;3.50;;;;;;;;;;5032700;28;20079;-70
2021/04/14 02:02:47;;;;;;;6.72;3.45;;;;;;;;;;5035558;28;20021;-70
2021/04/14 02:05:13;;;;;;;9.18;4.10;;;;;;;;;;5041339;28;20087;-70
2021/04/14 02:07:39;;;;;;;6.95;3.58;;;;;;;;;;5045498;28;20494;-70
2021/04/14 02:10:06;;;;;;;5.82;3.63;;;;;;;;;;5037577;28;20026;-72
2021/04/14 02:12:32;;;;;;;7.55;3.65;;;;;;;;;;5050822;28;20035;-73
2021/04/14 02:14:58;;;;;;;11.85;3.42;;;;;;;;;;5048937;28;20013;-70
2021/04/14 02:17:24;;;;;;;6.15;3.47;;;;;;;;;;5035828;28;20036;-70
2021/04/14 02:19:50;;;;;;;6.50;3.83;;;;;;;;;;5031916;28;20049;-70
2021/04/14 02:22:16;;;;;;;6.25;3.40;;;;;;;;;;5038869;28;20033;-69
2021/04/14 02:24:42;;;;;;;7.22;3.88;;;;;;;;;;5033344;28;20049;-70
2021/04/14 02:27:08;;;;;;;8.02;4.00;;;;;;;;;;5032285;28;20034;-70
2021/04/14 02:29:34;;;;;;;6.13;3.55;;;;;;;;;;5027354;28;20025;-70
2021/04/14 02:32:00;;;;;;;7.28;4.18;;;;;;;;;;5032968;28;20030;-70
2021/04/14 02:34:26;;;;;;;6.68;3.22;;;;;;;;;;5036552;28;20043;-70
2021/04/14 02:36:52;;;;;;;7.75;4.13;;;;;;;;;;5029819;28;20084;-70
2021/04/14 02:39:18;;;;;;;8.57;4.43;;;;;;;;;;5042114;28;20036;-70
2021/04/14 02:41:47;;;;;;;9.23;4.30;;;;;;;;;;5034117;28;20021;-70
2021/04/14 02:44:13;;;;;;;8.85;3.78;;;;;;;;;;5031062;28;20028;-69
2021/04/14 02:46:39;;;;;;;7.32;4.10;;;;;;;;;;5025530;28;20022;-69
2021/04/14 02:49:05;;;;;;;8.32;4.43;;;;;;;;;;5029898;28;20425;-70
2021/04/14 02:51:31;;;;;;;9.48;4.07;;;;;;;;;;5035645;28;20060;-70
2021/04/14 02:53:57;;;;;;;7.13;4.63;;;;;;;;;;5026136;28;20088;-70
2021/04/14 02:56:23;;;;;;;11.00;3.92;;;;;;;;;;5020222;28;20029;-70
2021/04/14 02:58:49;;;;;;;6.10;3.47;;;;;;;;;;5026803;28;20109;-69
2021/04/14 03:01:16;;;;;;;8.23;3.70;;;;;;;;;;5022621;28;20117;-70
2021/04/14 03:03:42;;;;;;;9.30;3.55;;;;;;;;;;5037593;28;20043;-70
2021/04/14 03:06:08;;;;;;;6.28;3.70;;;;;;;;;;5028150;28;20471;-70
2021/04/14 03:08:34;;;;;;;7.25;4.03;;;;;;;;;;5027559;28;20433;-70
2021/04/14 03:11:00;;;;;;;9.55;4.00;;;;;;;;;;5027266;28;20102;-70
2021/04/14 03:13:25;;;;;;;7.70;3.80;;;;;;;;;;5028868;28;20435;-69
2021/04/14 03:15:51;;;;;;;7.40;4.40;;;;;;;;;;5028935;28;20049;-70
2021/04/14 03:18:18;;;;;;;5.55;3.28;;;;;;;;;;5022417;28;20043;-69
2021/04/14 03:20:44;;;;;;;7.43;4.00;;;;;;;;;;5029564;28;20021;-69
2021/04/14 03:23:11;;;;;;;8.50;4.13;;;;;;;;;;5023075;28;20499;-70
2021/04/14 03:25:37;;;;;;;8.77;4.57;;;;;;;;;;5029041;28;20108;-70
2021/04/14 03:28:04;;;;;;;7.82;5.75;;;;;;;;;;5029497;28;20060;-70
2021/04/14 03:30:30;;;;;;;6.80;3.90;;;;;;;;;;5022561;28;20051;-70
2021/04/14 03:32:56;;;;;;;7.68;4.40;;;;;;;;;;5028334;28;20056;-69
2021/04/14 03:35:23;;;;;;;6.63;3.97;;;;;;;;;;5039875;28;20474;-74
2021/04/14 03:37:49;;;;;;;5.88;4.15;;;;;;;;;;5058488;28;20044;-70
2021/04/14 03:40:16;;;;;;;9.77;4.40;;;;;;;;;;5040029;28;20710;-69
2021/04/14 03:42:42;;;;;;;7.68;4.00;;;;;;;;;;5017681;28;20030;-70
2021/04/14 03:45:15;;;;;;;10.52;4.63;;;;;;;;;;5025047;28;20041;-70
2021/04/14 03:47:41;;;;;;;9.57;4.25;;;;;;;;;;5018961;28;20044;-70
2021/04/14 03:50:08;;;;;;;10.02;4.97;;;;;;;;;;5026561;28;20044;-70
2021/04/14 03:52:34;;;;;;;7.65;4.35;;;;;;;;;;5029634;28;20025;-70
2021/04/14 03:55:00;;;;;;;6.40;4.25;;;;;;;;;;5028222;28;20644;-70
2021/04/14 03:57:26;;;;;;;4.97;3.65;;;;;;;;;;5023811;28;20482;-70
2021/04/14 03:59:52;;;;;;;11.10;4.63;;;;;;;;;;5035579;28;20032;-69
2021/04/14 04:02:18;;;;;;;12.20;4.43;;;;;;;;;;5028327;28;20399;-71
2021/04/14 04:04:44;;;;;;;11.45;4.47;;;;;;;;;;5029404;28;20025;-71
2021/04/14 04:07:10;;;;;;;8.05;4.35;;;;;;;;;;5032432;28;20386;-70
2021/04/14 04:09:36;;;;;;;8.43;3.83;;;;;;;;;;5028904;28;20459;-71
2021/04/14 04:12:05;;;;;;;7.28;4.20;;;;;;;;;;5029138;28;20482;-70
2021/04/14 04:14:34;;;;;;;7.67;3.93;;;;;;;;;;5022219;28;20084;-70
2021/04/14 04:17:00;;;;;;;7.90;4.18;;;;;;;;;;5023651;28;20494;-71
2021/04/14 04:19:26;;;;;;;7.75;4.15;;;;;;;;;;5033196;28;20061;-71
2021/04/14 04:21:52;;;;;;;7.63;4.18;;;;;;;;;;5024543;28;20068;-70
2021/04/14 04:24:18;;;;;;;7.97;4.25;;;;;;;;;;5025191;28;20029;-70
2021/04/14 04:26:44;;;;;;;9.00;4.43;;;;;;;;;;5028926;28;20049;-70
2021/04/14 04:29:10;;;;;;;7.65;4.00;;;;;;;;;;5023282;28;20030;-71
2021/04/14 04:31:36;;;;;;;8.98;3.92;;;;;;;;;;5019068;28;20071;-70
2021/04/14 04:34:02;;;;;;;8.82;4.22;;;;;;;;;;5021809;28;20037;-70
2021/04/14 04:36:28;;;;;;;8.52;3.90;;;;;;;;;;5024115;28;20084;-70
2021/04/14 04:38:54;;;;;;;5.65;3.78;;;;;;;;;;5025861;28;20431;-70
2021/04/14 04:41:20;;;;;;;7.60;3.78;;;;;;;;;;5025373;28;20025;-70
2021/04/14 04:43:46;;;;;;;7.95;4.20;;;;;;;;;;5025288;28;20499;-70
2021/04/14 04:46:12;;;;;;;7.57;3.85;;;;;;;;;;5025092;28;20034;-70
2021/04/14 04:48:38;;;;;;;6.30;3.92;;;;;;;;;;5027697;28;20021;-70
2021/04/14 04:51:04;;;;;;;8.70;4.18;;;;;;;;;;5023391;28;20080;-70
2021/04/14 04:53:30;;;;;;;10.90;4.57;;;;;;;;;;5022996;28;20064;-70
2021/04/14 04:55:56;;;;;;;9.75;5.72;;;;;;;;;;5023967;28;20025;-70
2021/04/14 04:58:22;;;;;;;13.63;6.28;;;;;;;;;;5022472;28;20446;-71
2021/04/14 05:00:48;;;;;;;13.38;6.40;;;;;;;;;;5023246;28;20033;-71
2021/04/14 05:03:15;;;;;;;13.95;7.15;;;;;;;;;;5024330;28;20038;-70
2021/04/14 05:05:41;;;;;;;16.83;9.65;;;;;;;;;;5026942;28;20027;-70
2021/04/14 05:08:07;;;;;;;19.67;11.63;;;;;;;;;;5014510;28;20483;-70
2021/04/14 05:10:33;;;;;;;18.80;10.23;;;;;;;;;;5023695;28;20045;-70
2021/04/14 05:13:00;;;;;;;17.58;9.82;;;;;;;;;;5039154;28;20589;-70
2021/04/14 05:15:28;;;;;;;17.88;11.18;;;;;;;;;;5031709;28;20109;-70
2021/04/14 05:17:54;;;;;;;20.38;10.13;;;;;;;;;;5023131;28;20546;-70
2021/04/14 05:20:20;;;;;;;19.50;10.55;;;;;;;;;;5024377;28;20834;-71
2021/04/14 05:22:46;;;;;;;20.25;10.85;;;;;;;;;;5027919;28;20037;-71
2021/04/14 05:25:14;;;;;;;18.92;10.30;;;;;;;;;;5027415;28;20410;-70
2021/04/14 05:27:42;;;;;;;19.38;9.90;;;;;;;;;;5024308;28;20794;-70
2021/04/14 05:30:08;;;;;;;18.88;10.35;;;;;;;;;;5027103;28;20025;-70
2021/04/14 05:32:34;;;;;;;21.33;10.07;;;;;;;;;;5027635;28;20034;-70
2021/04/14 05:35:00;;;;;;;22.58;12.10;;;;;;;;;;5041298;28;20068;-70
2021/04/14 05:37:27;;;;;;;16.83;10.10;;;;;;;;;;5027601;28;20052;-71
2021/04/14 05:39:53;;;;;;;19.63;11.40;;;;;;;;;;5039365;28;20056;-71
2021/04/14 05:42:19;;;;;;;18.42;9.68;;;;;;;;;;5024172;28;20805;-71
2021/04/14 05:44:45;;;;;;;21.67;10.93;;;;;;;;;;5025064;28;20087;-71
2021/04/14 05:47:11;;;;;;;21.55;12.48;;;;;;;;;;5025563;28;20025;-71
2021/04/14 05:49:37;;;;;;;21.02;10.75;;;;;;;;;;5028897;28;20605;-71
2021/04/14 05:52:03;;;;;;;20.65;11.30;;;;;;;;;;5024917;28;20037;-71
2021/04/14 05:54:29;;;;;;;22.27;11.15;;;;;;;;;;5017545;28;20045;-70
2021/04/14 05:56:57;;;;;;;19.95;10.57;;;;;;;;;;5026986;28;20435;-70
2021/04/14 05:59:23;;;;;;;20.38;11.10;;;;;;;;;;5026731;28;20024;-72
2021/04/14 06:01:49;;;;;;;22.40;11.50;;;;;;;;;;5032176;28;20395;-71
2021/04/14 06:04:16;;;;;;;20.08;10.70;;;;;;;;;;5022434;28;20060;-72
2021/04/14 06:06:42;;;;;;;21.40;11.77;;;;;;;;;;5030755;28;20029;-72
2021/04/14 06:09:09;;;;;;;24.35;11.93;;;;;;;;;;5039437;28;20083;-71
2021/04/14 06:11:36;;;;;;;24.90;12.93;;;;;;;;;;5033449;28;20116;-72
2021/04/14 06:14:01;;;;;;;26.08;12.50;;;;;;;;;;5025598;28;20034;-72
2021/04/14 06:16:28;;;;;;;22.30;10.75;;;;;;;;;;5029646;28;20029;-69
2021/04/14 06:18:53;;;;;;;17.08;11.23;;;;;;;;;;5023153;28;20068;-69
2021/04/14 06:21:20;;;;;;;19.40;10.65;;;;;;;;;;5020587;28;20467;-69
2021/04/14 06:23:47;;;;;;;18.75;10.65;;;;;;;;;;5014206;28;20022;-69
2021/04/14 06:26:25;;;;;;;20.52;11.43;;;;;;;;;;5018482;28;20479;-69
2021/04/14 06:28:54;;;;;;;26.13;12.65;;;;;;;;;;5019580;28;20065;-69
2021/04/14 06:31:20;;;;;;;19.92;11.48;;;;;;;;;;5015380;28;20021;-69
2021/04/14 06:33:49;;;;;;;19.92;9.95;;;;;;;;;;5014969;28;20407;-70
2021/04/14 06:36:15;;;;;;;17.58;10.30;;;;;;;;;;5024304;28;20033;-70
2021/04/14 06:38:47;;;;;;;17.35;9.88;;;;;;;;;;5028703;28;20029;-71
2021/04/14 06:44:10;;;;;;;16.05;9.27;;;;;;;;;;5047377;28;20018;-76
2021/04/14 06:46:37;;;;;;;14.90;9.23;;;;;;;;;;5062449;28;20021;-71
2021/04/14 06:49:08;;;;;;;15.20;8.70;;;;;;;;;;5028221;28;20151;-71
2021/04/14 06:51:43;;;;;;;13.45;8.48;;;;;;;;;;5018864;28;20021;-70
2021/04/14 06:54:15;;;;;;;16.20;8.80;;;;;;;;;;5021827;28;20114;-71
2021/04/14 06:56:42;;;;;;;10.43;7.53;;;;;;;;;;5017961;28;20022;-71
2021/04/14 06:59:11;;;;;;;12.18;7.97;;;;;;;;;;5027251;28;20025;-71
2021/04/14 07:01:48;;;;;;;10.77;8.10;;;;;;;;;;5019154;28;20060;-71
2021/04/14 07:04:34;;;;;;;11.57;7.47;;;;;;;;;;5018584;28;20033;-72
2021/04/14 07:07:02;;;;;;;14.48;8.65;;;;;;;;;;5019497;28;20112;-72
2021/04/14 07:09:36;;;;;;;11.88;7.82;;;;;;;;;;5020421;28;20073;-71
2021/04/14 07:12:05;;;;;;;11.45;8.23;;;;;;;;;;5014329;28;20030;-71
2021/04/14 07:14:31;;;;;;;10.82;7.70;;;;;;;;;;5014026;28;20057;-71
2021/04/14 07:17:29;;;;;;;12.00;8.45;;;;;;;;;;5015417;28;20124;-71
2021/04/14 07:19:59;;;;;;;14.00;8.57;;;;;;;;;;5023459;28;20116;-71
2021/04/14 07:22:31;;;;;;;12.45;9.25;;;;;;;;;;5025970;28;20437;-72
2021/04/14 07:25:05;;;;;;;14.13;8.90;;;;;;;;;;5024632;28;20037;-71
2021/04/14 07:27:43;;;;;;;11.63;8.40;;;;;;;;;;5031313;28;20028;-71
2021/04/14 07:30:12;;;;;;;14.77;9.30;;;;;;;;;;5037091;28;20082;-72
2021/04/14 07:32:53;;;;;;;12.67;7.87;;;;;;;;;;5031271;28;20037;-72
2021/04/14 07:35:28;;;;;;;16.63;9.25;;;;;;;;;;5034575;28;20032;-74
2021/04/14 07:38:20;;;;;;;14.75;9.75;;;;;;;;;;5034151;28;20053;-71
2021/04/14 07:41:09;;;;;;;15.93;8.93;;;;;;;;;;5020503;28;20094;-72
2021/04/14 07:43:53;;;;;;;18.75;9.77;;;;;;;;;;5032417;28;20049;-76
2021/04/14 07:46:22;;;;;;;13.88;9.60;;;;;;;;;;5035451;28;20028;-75
2021/04/14 07:48:50;;;;;;;14.90;9.48;;;;;;;;;;5019838;28;20038;-75
2021/04/14 07:51:18;;;;;;;15.07;9.57;;;;;;;;;;5024332;28;20034;-75
2021/04/14 07:53:54;;;;;;;13.18;8.75;;;;;;;;;;5019512;28;20352;-75
2021/04/14 07:56:22;;;;;;;14.35;8.98;;;;;;;;;;5025667;28;20478;-75
2021/04/14 07:58:51;;;;;;;12.40;8.00;;;;;;;;;;5026807;28;20041;-75
2021/04/14 08:01:17;;;;;;;14.23;8.53;;;;;;;;;;5029828;28;20437;-75
2021/04/14 08:03:43;;;;;;;14.50;8.35;;;;;;;;;;5019164;28;20279;-75
2021/04/14 08:06:11;;;;;;;14.88;7.75;;;;;;;;;;5027965;28;20112;-75
2021/04/14 08:08:38;;;;;;;10.82;7.97;;;;;;;;;;5020459;28;20496;-75
2021/04/14 08:11:10;;;;;;;14.10;8.65;;;;;;;;;;5026825;28;20092;-76
2021/04/14 08:13:41;;;;;;;12.82;8.27;;;;;;;;;;5026538;28;20626;-76
2021/04/14 08:16:18;;;;;;;13.60;8.45;;;;;;;;;;5018644;28;20052;-76
2021/04/14 08:18:52;;;;;;;10.95;7.80;;;;;;;;;;5009652;28;20068;-74
2021/04/14 08:21:29;;;;;;;12.38;7.97;;;;;;;;;;4983872;28;20550;-75
2021/04/14 08:23:56;;;;;;;12.18;7.72;;;;;;;;;;4999613;28;20022;-75
2021/04/14 08:26:22;;;;;;;10.65;7.00;;;;;;;;;;5000507;28;20025;-76
2021/04/14 08:28:50;;;;;;;11.98;7.65;;;;;;;;;;4997148;28;20117;-75
2021/04/14 08:31:47;;;;;;;10.77;6.68;;;;;;;;;;4984750;28;20097;-75
2021/04/14 08:34:19;;;;;;;14.65;8.52;;;;;;;;;;4981919;28;20064;-73
2021/04/14 08:36:51;;;;;;;13.10;7.95;;;;;;;;;;4982490;28;20030;-75
2021/04/14 08:39:19;;;;;;;12.68;7.68;;;;;;;;;;4974533;28;20023;-75
2021/04/14 08:41:45;;;;;;;11.18;7.43;;;;;;;;;;4982084;28;20034;-75
2021/04/14 08:44:17;;;;;;;14.05;7.28;;;;;;;;;;4991146;28;20027;-75
2021/04/14 08:46:44;;;;;;;11.63;7.97;;;;;;;;;;4983340;28;20042;-75
2021/04/14 08:49:11;;;;;;;11.13;7.60;;;;;;;;;;4975939;28;20023;-74
2021/04/14 08:51:40;;;;;;;14.70;6.13;;;;;;;;;;4984066;28;20030;-73
2021/04/14 08:54:06;;;;;;;10.98;6.70;;;;;;;;;;4980890;28;20038;-73
2021/04/14 08:56:33;;;;;;;18.98;7.03;;;;;;;;;;4972397;28;20476;-72
2021/04/14 08:58:59;;;;;;;10.20;6.53;;;;;;;;;;4978378;28;20121;-72
2021/04/14 09:01:29;;;;;;;10.27;6.47;;;;;;;;;;4986905;28;20030;-72
2021/04/14 09:03:56;;;;;;;10.05;5.88;;;;;;;;;;4987772;28;20019;-73
2021/04/14 09:06:22;;;;;;;7.53;5.82;;;;;;;;;;4978912;28;20451;-72
2021/04/14 09:08:52;;;;;;;9.10;5.25;;;;;;;;;;4981298;28;20259;-73
2021/04/14 09:11:23;;;;;;;8.70;5.20;;;;;;;;;;4991230;28;20085;-71
2021/04/14 09:14:01;;;;;;;8.43;4.15;;;;;;;;;;4984909;28;20036;-72
2021/04/14 09:16:47;;;;;;;9.25;4.53;;;;;;;;;;4979692;28;20033;-71
2021/04/14 09:19:19;;;;;;;8.88;4.95;;;;;;;;;;4986761;28;20034;-72
2021/04/14 09:21:47;;;;;;;13.70;4.20;;;;;;;;;;4983564;28;20447;-72
2021/04/14 09:24:28;;;;;;;8.52;4.55;;;;;;;;;;4981326;28;20524;-72
2021/04/14 09:26:55;;;;;;;12.95;4.57;;;;;;;;;;4988187;28;20026;-72
2021/04/14 09:29:24;;;;;;;7.05;4.82;;;;;;;;;;4989084;28;20014;-72
2021/04/14 09:31:51;;;;;;;8.43;5.30;;;;;;;;;;4973915;28;20042;-73
2021/04/14 09:34:19;;;;;;;8.15;5.50;;;;;;;;;;5002202;28;20057;-74
2021/04/14 09:36:51;;;;;;;8.10;4.50;;;;;;;;;;4981922;28;20110;-74
2021/04/14 09:39:32;;;;;;;8.77;5.40;;;;;;;;;;5021236;28;20181;-74
2021/04/14 09:41:58;;;;;;;10.70;5.90;;;;;;;;;;4993845;28;20042;-73
2021/04/14 09:44:35;;;;;;;10.10;5.85;;;;;;;;;;4995229;28;20033;-73
2021/04/14 09:47:11;;;;;;;7.35;2.45;;;;;;;;;;4983357;28;20034;-71
2021/04/14 09:49:38;;;;;;;7.13;1.90;;;;;;;;;;4983185;28;20201;-71
2021/04/14 09:52:18;;;;;;;5.00;1.65;;;;;;;;;;4992014;28;20038;-72
2021/04/14 09:54:44;;;;;;;3.13;1.70;;;;;;;;;;4996976;28;20034;-71
2021/04/14 09:57:15;;;;;;;3.95;1.73;;;;;;;;;;4991729;28;20042;-72
2021/04/14 09:59:42;;;;;;;3.42;1.40;;;;;;;;;;4991716;28;20026;-71
2021/04/14 10:02:11;;;;;;;5.45;1.58;;;;;;;;;;4989571;28;20117;-73
2021/04/14 10:04:38;;;;;;;5.93;1.75;;;;;;;;;;4992559;28;20065;-72
2021/04/14 10:07:05;;;;;;;4.15;1.60;;;;;;;;;;4990454;28;20235;-74
2021/04/14 10:09:34;;;;;;;5.03;1.67;;;;;;;;;;4988466;28;20056;-72
2021/04/14 10:12:15;;;;;;;6.72;2.50;;;;;;;;;;4991232;28;20057;-73
2021/04/14 10:14:43;;;;;;;4.07;1.75;;;;;;;;;;4981171;28;20049;-73
2021/04/14 10:17:09;;;;;;;4.47;1.92;;;;;;;;;;4994522;28;20081;-73
2021/04/14 10:19:37;;;;;;;6.93;2.13;;;;;;;;;;4986749;28;20038;-72
2021/04/14 10:22:29;;;;;;;4.90;1.77;;;;;;;;;;4974073;28;20038;-73
2021/04/14 10:25:01;;;;;;;5.32;1.70;;;;;;;;;;4983746;28;20065;-72
2021/04/14 10:27:28;;;;;;;2.42;1.10;;;;;;;;;;4974964;28;20027;-72
2021/04/14 10:29:54;;;;;;;4.28;1.50;;;;;;;;;;4976886;28;20539;-73
2021/04/14 10:32:22;;;;;;;5.88;1.13;;;;;;;;;;4984718;28;20057;-72
2021/04/14 10:34:48;;;;;;;6.10;1.25;;;;;;;;;;4978130;28;20030;-73
2021/04/14 10:37:24;;;;;;;3.70;0.93;;;;;;;;;;4978171;28;20059;-72
2021/04/14 10:39:51;;;;;;;5.20;1.30;;;;;;;;;;4978124;28;20038;-72
2021/04/14 10:42:17;;;;;;;6.38;1.38;;;;;;;;;;4978673;28;20038;-72
2021/04/14 10:44:43;;;;;;;6.15;1.52;;;;;;;;;;4976238;28;20408;-72
2021/04/14 10:47:29;;;;;;;3.40;1.23;;;;;;;;;;4980249;28;20062;-72
2021/04/14 10:50:05;;;;;;;4.78;1.33;;;;;;;;;;4984805;28;20030;-72
2021/04/14 10:52:32;;;;;;;3.80;0.98;;;;;;;;;;4974754;28;20034;-72
2021/04/14 10:55:00;;;;;;;3.72;1.27;;;;;;;;;;4976850;28;20138;-72
2021/04/14 10:57:28;;;;;;;4.50;1.80;;;;;;;;;;4974767;28;20030;-72
2021/04/14 11:00:01;;;;;;;3.60;0.70;;;;;;;;;;4972794;28;20489;-72
2021/04/14 11:02:28;;;;;;;4.90;0.90;;;;;;;;;;4971007;28;20041;-72
2021/04/14 11:04:55;;;;;;;3.50;0.93;;;;;;;;;;4992353;28;20030;-72
2021/04/14 11:07:24;;;;;;;4.78;0.80;;;;;;;;;;4985578;28;20077;-72
2021/04/14 11:09:51;;;;;;;3.53;0.90;;;;;;;;;;4995856;28;20331;-72
2021/04/14 11:12:18;;;;;;;1.92;0.50;;;;;;;;;;4976128;28;20038;-72
2021/04/14 11:14:47;;;;;;;4.22;0.82;;;;;;;;;;4976412;28;20042;-72
2021/04/14 11:17:42;;;;;;;5.68;0.50;;;;;;;;;;4977529;28;20031;-72
2021/04/14 11:20:08;;;;;;;3.55;0.80;;;;;;;;;;4978719;28;20129;-72
2021/04/14 11:23:00;;;;;;;3.03;0.70;;;;;;;;;;4996265;28;20087;-72
2021/04/14 11:25:28;;;;;;;5.97;0.60;;;;;;;;;;4974423;28;20134;-72
2021/04/14 11:27:58;;;;;;;2.97;1.15;;;;;;;;;;4979962;28;20034;-72
2021/04/14 11:30:24;;;;;;;4.70;0.60;;;;;;;;;;4984599;28;20026;-72
2021/04/14 11:32:54;;;;;;;3.40;0.40;;;;;;;;;;4982546;28;20037;-72
2021/04/14 11:35:30;;;;;;;4.45;1.15;;;;;;;;;;4979145;28;20045;-72
2021/04/14 11:37:56;;;;;;;4.70;0.80;;;;;;;;;;4971722;28;20507;-72
2021/04/14 11:40:22;;;;;;;4.28;0.75;;;;;;;;;;4982456;28;20022;-71
2021/04/14 11:42:53;;;;;;;4.68;0.70;;;;;;;;;;4981832;28;20041;-72
2021/04/14 11:45:24;;;;;;;2.70;0.70;;;;;;;;;;4983153;28;20468;-72
2021/04/14 11:47:50;;;;;;;5.25;0.90;;;;;;;;;;4985809;28;20041;-72
2021/04/14 11:50:22;;;;;;;2.10;0.90;;;;;;;;;;4980311;28;20177;-72
2021/04/14 11:52:50;;;;;;;1.38;0.63;;;;;;;;;;4994620;28;20030;-71
2021/04/14 11:55:22;;;;;;;6.80;1.35;;;;;;;;;;4977745;28;20437;-73
2021/04/14 11:58:00;;;;;;;5.28;1.25;;;;;;;;;;4974056;28;20035;-72
2021/04/14 12:00:28;;;;;;;3.40;0.95;;;;;;;;;;4981915;28;20033;-72
2021/04/14 12:03:00;;;;;;;9.40;0.95;;;;;;;;;;4978760;28;20531;-72
2021/04/14 12:05:26;;;;;;;2.38;0.80;;;;;;;;;;4976341;28;20033;-72
2021/04/14 12:07:52;;;;;;;4.55;1.10;;;;;;;;;;4978830;28;20030;-72
2021/04/14 12:10:19;;;;;;;4.45;1.10;;;;;;;;;;4993792;28;20499;-72
2021/04/14 12:12:45;;;;;;;2.70;0.90;;;;;;;;;;4980323;28;20035;-71
2021/04/14 12:15:11;;;;;;;1.83;0.88;;;;;;;;;;4981474;28;20037;-71
2021/04/14 12:17:37;;;;;;;9.77;1.00;;;;;;;;;;4977781;28;20046;-69
2021/04/14 12:20:04;;;;;;;4.57;0.85;;;;;;;;;;4989695;28;20035;-69
2021/04/14 12:22:32;;;;;;;4.22;1.23;;;;;;;;;;4976363;28;20026;-69
2021/04/14 12:24:59;;;;;;;2.95;0.93;;;;;;;;;;4978684;28;20042;-71
2021/04/14 12:27:25;;;;;;;2.33;0.93;;;;;;;;;;4977259;28;20022;-72
2021/04/14 12:29:52;;;;;;;2.50;0.52;;;;;;;;;;4976297;28;20031;-71
2021/04/14 12:32:19;;;;;;;6.18;0.80;;;;;;;;;;4976169;28;20045;-72
2021/04/14 12:34:44;;;;;;;5.03;0.88;;;;;;;;;;4973720;28;20058;-72
2021/04/14 12:37:10;;;;;;;3.15;0.95;;;;;;;;;;4985381;28;20080;-72
2021/04/14 12:39:36;;;;;;;4.88;0.80;;;;;;;;;;4986790;28;20026;-72
2021/04/14 12:42:02;;;;;;;6.95;1.00;;;;;;;;;;4976164;28;20420;-72
2021/04/14 12:44:28;;;;;;;2.47;0.70;;;;;;;;;;4974660;28;20035;-72
2021/04/14 12:46:56;;;;;;;2.45;0.60;;;;;;;;;;4973997;28;20068;-72
2021/04/14 12:49:23;;;;;;;4.45;0.82;;;;;;;;;;4975066;28;20018;-72
2021/04/14 12:52:02;;;;;;;2.53;0.70;;;;;;;;;;4973359;28;20473;-72
2021/04/14 12:54:28;;;;;;;4.65;0.95;;;;;;;;;;4972884;28;20034;-72
2021/04/14 12:57:02;;;;;;;2.95;1.15;;;;;;;;;;4974584;28;20029;-72
2021/04/14 12:59:31;;;;;;;4.95;0.82;;;;;;;;;;4972781;28;20026;-72
2021/04/14 13:02:03;;;;;;;5.68;0.70;;;;;;;;;;4995015;28;20443;-72
2021/04/14 13:04:36;;;;;;;3.33;0.88;;;;;;;;;;4975512;28;20547;-72
2021/04/14 13:07:24;;;;;;;2.05;0.70;;;;;;;;;;4979051;28;20398;-71
2021/04/14 13:09:51;;;;;;;4.82;0.85;;;;;;;;;;4992359;28;20022;-70
2021/04/14 13:12:20;;;;;;;2.70;0.77;;;;;;;;;;4995234;28;20034;-72
2021/04/14 13:14:47;;;;;;;3.65;1.10;;;;;;;;;;4996882;28;20471;-72
2021/04/14 13:17:17;;;;;;;3.85;0.75;;;;;;;;;;4987218;28;20551;-72
2021/04/14 13:19:43;;;;;;;;;;;;;;;;;;4987921;28;20105;-72
2021/04/14 13:22:29;;;;;;;7.60;0.98;;;;;;;;;;4987151;28;20013;-71
2021/04/14 13:25:09;;;;;;;3.05;0.88;;;;;;;;;;5000387;28;20038;-71
2021/04/14 13:27:44;;;;;;;5.55;0.70;;;;;;;;;;4993926;28;20026;-72
2021/04/14 13:30:28;;;;;;;7.68;0.52;;;;;;;;;;4993684;28;20596;-72
2021/04/14 13:32:59;;;;;;;4.70;0.60;;;;;;;;;;4988908;28;20026;-72
2021/04/14 13:35:33;;;;;;;5.15;1.63;;;;;;;;;;4992562;28;20030;-72
2021/04/14 13:38:02;;;;;;;4.97;0.80;;;;;;;;;;4984432;28;20027;-72
2021/04/14 13:40:47;;;;;;;6.15;0.60;;;;;;;;;;4994442;28;20073;-71
2021/04/14 13:43:24;;;;;;;3.80;0.85;;;;;;;;;;4983228;28;20030;-71
2021/04/14 13:45:59;;;;;;;1.92;0.50;;;;;;;;;;4976571;28;20121;-71
2021/04/14 13:48:32;;;;;;;3.80;0.75;;;;;;;;;;4971941;28;20106;-71
2021/04/14 13:51:08;;;;;;;3.55;0.95;;;;;;;;;;4991222;28;20053;-71
2021/04/14 13:53:35;;;;;;;2.40;1.08;;;;;;;;;;4973528;28;20035;-71
2021/04/14 13:56:03;;;;;;;4.75;1.40;;;;;;;;;;4971101;28;20035;-70
2021/04/14 13:58:39;;;;;;;4.20;1.00;;;;;;;;;;4984850;28;20027;-70
2021/04/14 14:01:08;;;;;;;3.08;0.85;;;;;;;;;;4997106;28;20055;-71
2021/04/14 14:03:34;;;;;;;2.53;0.80;;;;;;;;;;4975390;28;20030;-70
2021/04/14 14:06:01;;;;;;;2.58;0.60;;;;;;;;;;4973468;28;20138;-70
2021/04/14 14:08:33;;;;;;;2.47;0.82;;;;;;;;;;4979682;28;20058;-70
2021/04/14 14:11:01;;;;;;;4.18;0.73;;;;;;;;;;4978740;28;20053;-70
2021/04/14 14:13:28;;;;;;;5.05;0.70;;;;;;;;;;4987764;28;20586;-70
2021/04/14 14:16:00;;;;;;;1.85;0.65;;;;;;;;;;4982067;28;20181;-70
2021/04/14 14:18:25;;;;;;;3.72;0.90;;;;;;;;;;4989302;28;20025;-70
2021/04/14 14:20:52;;;;;;;2.42;0.77;;;;;;;;;;4992700;28;20171;-70
2021/04/14 14:23:20;;;;;;;3.85;0.73;;;;;;;;;;4996868;28;20061;-70
2021/04/14 14:25:51;;;;;;;4.65;0.60;;;;;;;;;;5000833;28;20018;-70
2021/04/14 14:28:17;;;;;;;3.38;0.50;;;;;;;;;;5009601;28;20029;-70
2021/04/14 14:30:47;;;;;;;2.35;0.60;;;;;;;;;;5004528;28;20030;-71
2021/04/14 14:33:15;;;;;;;2.53;0.40;;;;;;;;;;5002818;28;20078;-72
2021/04/14 14:35:41;;;;;;;5.22;0.82;;;;;;;;;;5002112;28;20042;-71
2021/04/14 14:38:12;;;;;;;1.48;0.38;;;;;;;;;;5004064;28;20019;-74
2021/04/14 14:40:42;;;;;;;3.42;0.50;;;;;;;;;;4988984;28;20354;-70
2021/04/14 14:43:09;;;;;;;3.28;0.60;;;;;;;;;;4980203;28;20042;-71
2021/04/14 14:45:41;;;;;;;3.13;0.50;;;;;;;;;;4973816;28;20019;-71
2021/04/14 14:48:07;;;;;;;5.95;0.70;;;;;;;;;;4974958;28;20022;-71
2021/04/14 14:50:35;;;;;;;2.72;0.65;;;;;;;;;;4974324;28;20038;-70